Time;durP1;ratioP1;P1;durP2;ratioP2;P2;SDS_P1;SDS_P2;PMS_P1;PMS_P2;Temp;Humidity;BMP_temperature;BMP_pressure;BME280_temperature;BME280_humidity;BME280_pressure;Samples;Min_cycle;Max_cycle;Signal;HPM_P1;HPM_P2
2022/07/15 00:00:17;;;;;;;471.35;411.02;;;;;;;21.53;39.07;101249.84;690818;28;23525;-64
2022/07/15 00:00:38;;;;;;;473.33;417.63;;;;;;;21.54;38.98;101257.88;690950;28;22398;-65
2022/07/15 00:01:00;;;;;;;473.90;420.30;;;;;;;21.54;39.43;101254.28;691190;28;46377;-64
2022/07/15 00:01:22;;;;;;;473.25;420.60;;;;;;;21.54;39.22;101257.88;693383;28;47773;-64
2022/07/15 00:01:43;;;;;;;493.35;440.30;;;;;;;21.51;39.29;101249.25;694495;28;23391;-64
2022/07/15 00:02:04;;;;;;;484.30;431.60;;;;;;;21.48;39.33;101250.53;694108;28;23480;-64
2022/07/15 00:02:26;;;;;;;485.13;432.40;;;;;;;21.49;39.29;101249.50;694950;28;23369;-64
2022/07/15 00:02:47;;;;;;;484.70;431.90;;;;;;;21.52;39.38;101250.91;692882;28;68356;-64
2022/07/15 00:03:09;;;;;;;479.02;426.33;;;;;;;21.53;39.38;101249.84;694754;28;23614;-65
2022/07/15 00:03:31;;;;;;;489.85;436.88;;;;;;;21.56;39.44;101252.13;695187;28;21535;-64
2022/07/15 00:03:53;;;;;;;508.90;455.48;;;;;;;21.55;39.33;101251.31;693183;28;46409;-65
2022/07/15 00:04:14;;;;;;;491.20;438.30;;;;;;;21.56;39.17;101254.88;694453;28;44386;-65
2022/07/15 00:04:37;;;;;;;492.13;439.30;;;;;;;21.53;39.01;101247.09;695165;28;23475;-65
2022/07/15 00:05:00;;;;;;;491.75;438.67;;;;;;;21.51;39.19;101250.09;695175;28;1237;-65
2022/07/15 00:05:22;;;;;;;497.52;444.33;;;;;;;21.49;39.33;101249.50;691157;28;1851;-65
2022/07/15 00:05:45;;;;;;;495.58;442.48;;;;;;;21.51;39.16;101260.25;690513;28;1788;-65
2022/07/15 00:06:06;;;;;;;518.70;464.90;;;;;;;21.49;39.18;101255.00;689040;28;70179;-65
2022/07/15 00:06:27;;;;;;;498.20;445.05;;;;;;;21.44;39.16;101249.31;689977;28;22386;-66
2022/07/15 00:06:49;;;;;;;491.10;438.25;;;;;;;21.46;39.66;101255.44;690452;28;22381;-64
2022/07/15 00:07:12;;;;;;;502.50;449.30;;;;;;;21.43;39.30;101255.91;690147;28;46595;-64
2022/07/15 00:07:34;;;;;;;501.27;448.17;;;;;;;21.41;39.41;101249.78;693613;28;67499;-64
2022/07/15 00:07:58;;;;;;;499.58;446.52;;;;;;;21.37;39.38;101252.19;694334;28;23543;-63
2022/07/15 00:08:19;;;;;;;500.17;447.08;;;;;;;21.35;39.51;101239.78;690500;28;115990;-64
2022/07/15 00:08:42;;;;;;;501.10;448.00;;;;;;;21.39;39.34;101244.56;694757;28;22372;-63
2022/07/15 00:09:03;;;;;;;490.20;437.30;;;;;;;21.39;39.41;101249.22;693335;28;69426;-63
2022/07/15 00:10:38;;;;;;;479.52;426.83;;;;;;;21.39;39.48;101244.56;688511;28;138408;-64
2022/07/15 00:10:59;;;;;;;479.58;426.88;;;;;;;21.38;39.39;101250.31;693185;28;69300;-64
2022/07/15 00:11:20;;;;;;;481.90;429.10;;;;;;;21.41;39.44;101255.28;693489;28;44935;-64
2022/07/15 00:11:42;;;;;;;482.45;429.63;;;;;;;21.38;39.53;101250.31;695205;28;21573;-65
2022/07/15 00:12:04;;;;;;;484.13;431.25;;;;;;;21.39;39.41;101252.81;694751;28;23494;-64
2022/07/15 00:12:28;;;;;;;488.65;435.70;;;;;;;21.41;39.31;101247.06;694554;28;44929;-65
2022/07/15 00:12:51;;;;;;;510.50;456.88;;;;;;;21.39;39.95;101249.22;690761;28;115065;-64
2022/07/15 00:13:12;;;;;;;492.70;439.70;;;;;;;21.41;39.15;101255.28;692949;28;69423;-64
2022/07/15 00:13:34;;;;;;;493.55;440.55;;;;;;;21.39;39.33;101250.06;693029;28;46199;-64
2022/07/15 00:13:57;;;;;;;490.65;437.65;;;;;;;21.37;39.53;101246.69;693857;28;46304;-64
2022/07/15 00:14:18;;;;;;;492.48;439.48;;;;;;;21.35;39.55;101246.09;693689;28;45262;-65
2022/07/15 00:14:40;;;;;;;500.95;447.77;;;;;;;21.38;39.63;101251.13;695101;28;21531;-64
2022/07/15 00:15:02;;;;;;;507.20;453.90;;;;;;;21.37;39.67;101248.63;694472;28;46723;-64
2022/07/15 00:15:25;;;;;;;503.00;449.73;;;;;;;21.35;39.60;101248.03;694264;28;46318;-64
2022/07/15 00:15:46;;;;;;;493.48;440.38;;;;;;;21.35;39.70;101248.03;691956;28;92357;-65
2022/07/15 00:16:08;;;;;;;494.48;441.40;;;;;;;21.32;39.70;101251.25;694868;28;23447;-64
2022/07/15 00:16:29;;;;;;;514.35;460.63;;;;;;;21.29;39.67;101246.22;694737;28;21789;-64
2022/07/15 00:16:51;;;;;;;517.13;463.38;;;;;;;21.32;39.74;101256.75;692971;28;46278;-64
2022/07/15 00:17:14;;;;;;;487.08;434.17;;;;;;;21.31;39.68;101250.38;694167;28;44376;-65
2022/07/15 00:17:35;;;;;;;489.60;436.60;;;;;;;21.29;39.81;101247.06;693236;28;68205;-65
2022/07/15 00:18:01;;;;;;;490.63;437.63;;;;;;;21.26;39.70;101246.69;696190;28;23439;-65
2022/07/15 00:18:23;;;;;;;496.92;443.90;;;;;;;21.27;39.61;101245.59;692381;28;115409;-65
2022/07/15 00:18:44;;;;;;;496.27;443.23;;;;;;;21.27;39.85;101249.22;694059;28;46420;-66
2022/07/15 00:19:06;;;;;;;502.92;449.73;;;;;;;21.24;39.93;101249.69;695403;28;46324;-65
2022/07/15 00:19:28;;;;;;;504.88;451.60;;;;;;;21.24;39.77;101250.50;694811;28;45236;-65
2022/07/15 00:19:50;;;;;;;507.05;453.75;;;;;;;21.22;39.91;101247.16;692711;28;22304;-65
2022/07/15 00:20:12;;;;;;;509.02;455.70;;;;;;;21.23;39.72;101253.47;692573;28;46300;-65
2022/07/15 00:20:40;;;;;;;537.42;483.20;;;;;;;21.19;39.81;101247.63;692765;28;46337;-65
2022/07/15 00:21:04;;;;;;;499.48;446.13;;;;;;;21.21;39.87;101250.97;692272;28;60424;-63
2022/07/15 00:21:27;;;;;;;504.15;450.90;;;;;;;21.20;39.99;101251.22;692917;28;5284;-64
2022/07/15 00:21:48;;;;;;;503.33;450.10;;;;;;;21.20;39.86;101260.28;691634;28;67466;-64
2022/07/15 00:22:09;;;;;;;504.35;451.15;;;;;;;21.20;40.15;101257.53;695064;28;22184;-64
2022/07/15 00:22:31;;;;;;;504.13;450.92;;;;;;;21.22;40.17;101249.06;694335;28;23546;-65
2022/07/15 00:22:52;;;;;;;501.38;448.27;;;;;;;21.22;40.00;101249.91;693754;28;46355;-65
2022/07/15 00:23:16;;;;;;;502.42;449.13;;;;;;;21.21;40.08;101252.91;695209;28;23483;-64
2022/07/15 00:23:37;;;;;;;512.55;458.90;;;;;;;21.26;40.09;101252.19;692609;28;92002;-64
2022/07/15 00:23:59;;;;;;;516.42;462.65;;;;;;;21.26;40.07;101257.69;694271;28;21298;-65
2022/07/15 00:24:20;;;;;;;491.13;438.17;;;;;;;21.27;40.02;101248.34;694066;28;46284;-65
2022/07/15 00:24:44;;;;;;;495.80;442.80;;;;;;;21.26;39.96;101252.19;695571;28;1650;-65
2022/07/15 00:25:05;;;;;;;498.58;445.42;;;;;;;21.26;39.92;101255.75;692933;28;69520;-65
2022/07/15 00:25:27;;;;;;;503.00;449.80;;;;;;;21.26;39.96;101254.94;694856;28;23504;-65
2022/07/15 00:25:49;;;;;;;505.08;451.77;;;;;;;21.27;40.08;101253.84;693686;28;46547;-65
2022/07/15 00:26:10;;;;;;;501.17;447.92;;;;;;;21.23;40.11;101254.31;694393;28;46292;-66
2022/07/15 00:26:32;;;;;;;498.63;445.52;;;;;;;21.23;40.12;101256.22;693997;28;23304;-65
2022/07/15 00:26:53;;;;;;;503.35;450.02;;;;;;;21.25;40.02;101251.34;693577;28;23479;-65
2022/07/15 00:27:14;;;;;;;528.42;474.15;;;;;;;21.24;40.04;101253.25;692986;28;45103;-65
2022/07/15 00:27:51;;;;;;;520.28;466.48;;;;;;;21.23;39.95;101258.97;694873;28;14518;-65
2022/07/15 00:28:13;;;;;;;503.90;450.60;;;;;;;21.20;40.07;101264.94;689415;28;137690;-65
2022/07/15 00:28:35;;;;;;;508.13;454.60;;;;;;;21.15;40.19;101257.41;690034;28;1821;-65
2022/07/15 00:28:57;;;;;;;508.35;454.85;;;;;;;21.19;40.01;101264.13;690369;28;2077;-66
2022/07/15 00:29:19;;;;;;;506.65;453.35;;;;;;;21.21;40.16;101261.97;690706;28;22420;-64
2022/07/15 00:29:40;;;;;;;508.40;455.00;;;;;;;21.21;40.22;101259.22;688880;28;69403;-64
2022/07/15 00:30:02;;;;;;;513.55;460.05;;;;;;;21.22;40.11;101265.53;688868;28;22438;-63
2022/07/15 00:30:27;;;;;;;514.30;460.80;;;;;;;21.20;40.12;101253.97;690567;28;46469;-63
2022/07/15 00:30:49;;;;;;;510.42;457.02;;;;;;;21.21;40.11;101258.38;689681;28;115158;-63
2022/07/15 00:31:10;;;;;;;515.03;461.45;;;;;;;21.21;40.11;101258.38;692644;28;45486;-63
2022/07/15 00:31:32;;;;;;;518.53;464.92;;;;;;;21.16;40.17;101256.34;692625;28;22387;-63
2022/07/15 00:31:54;;;;;;;536.95;482.65;;;;;;;21.16;40.35;101255.50;692335;28;22132;-64
2022/07/15 00:32:16;;;;;;;547.65;492.95;;;;;;;21.17;40.02;101257.16;691128;28;45230;-65
2022/07/15 00:32:37;;;;;;;511.17;457.67;;;;;;;21.20;39.98;101256.69;688844;28;46315;-64
2022/07/15 00:33:02;;;;;;;501.25;447.95;;;;;;;21.19;40.15;101257.75;690479;28;46329;-64
2022/07/15 00:33:23;;;;;;;499.25;445.98;;;;;;;21.17;40.26;101260.75;687709;28;92303;-65
2022/07/15 00:33:50;;;;;;;508.58;455.13;;;;;;;21.14;40.10;101254.91;683504;28;43323;-65
2022/07/15 00:34:12;;;;;;;538.95;484.63;;;;;;;21.11;40.25;101255.38;681634;28;136645;-65
2022/07/15 00:34:33;;;;;;;534.25;480.08;;;;;;;21.09;40.41;101254.78;689444;28;22404;-63
2022/07/15 00:34:54;;;;;;;510.95;457.48;;;;;;;21.07;40.56;101252.25;690818;28;23315;-64
2022/07/15 00:35:16;;;;;;;516.28;462.67;;;;;;;21.04;40.29;101249.97;688912;28;21518;-64
2022/07/15 00:35:38;;;;;;;518.05;464.42;;;;;;;21.04;40.41;101252.72;690413;28;44394;-64
2022/07/15 00:36:00;;;;;;;516.95;463.42;;;;;;;21.05;40.59;101255.25;691635;28;69421;-64
2022/07/15 00:36:21;;;;;;;516.28;462.70;;;;;;;21.05;40.39;101251.66;692418;28;16130;-63
2022/07/15 00:36:42;;;;;;;537.63;483.33;;;;;;;21.04;40.49;101255.47;693411;28;23389;-64
2022/07/15 00:37:05;;;;;;;509.80;456.20;;;;;;;21.03;40.61;101248.28;693317;28;958;-64
2022/07/15 00:37:27;;;;;;;502.98;449.52;;;;;;;21.01;40.60;101245.78;692024;28;55879;-69
2022/07/15 00:37:49;;;;;;;497.52;444.23;;;;;;;21.03;40.78;101254.66;690869;28;1633;-65
2022/07/15 00:38:11;;;;;;;493.70;440.60;;;;;;;21.03;40.87;101253.78;690431;28;46288;-63
2022/07/15 00:38:34;;;;;;;494.33;441.27;;;;;;;21.04;40.70;101256.28;690051;28;44368;-63
2022/07/15 00:38:58;;;;;;;501.05;447.85;;;;;;;21.06;40.63;101247.81;689987;28;60834;-63
2022/07/15 00:39:20;;;;;;;507.73;454.35;;;;;;;21.07;40.65;101252.25;686805;28;44365;-64
2022/07/15 00:39:43;;;;;;;526.70;472.70;;;;;;;21.05;40.70;101248.91;688044;28;45214;-64
2022/07/15 00:40:06;;;;;;;497.33;444.27;;;;;;;21.06;40.54;101253.31;687713;28;42153;-64
2022/07/15 00:40:29;;;;;;;489.55;436.55;;;;;;;21.09;40.49;101257.50;688950;28;1022;-66
2022/07/15 00:40:51;;;;;;;486.13;433.23;;;;;;;21.09;40.51;101254.78;682508;28;68348;-64
2022/07/15 00:41:12;;;;;;;479.75;427.02;;;;;;;21.10;40.46;101251.78;685833;28;44208;-64
2022/07/15 00:41:36;;;;;;;476.48;423.80;;;;;;;21.04;40.57;101249.97;685670;28;20858;-63
2022/07/15 00:41:59;;;;;;;477.27;424.55;;;;;;;21.10;40.56;101257.28;687416;28;92225;-63
2022/07/15 00:42:56;;;;;;;607.33;551.53;;;;;;;21.07;40.49;101255.00;681487;28;138492;-66
2022/07/15 00:43:18;;;;;;;598.97;543.72;;;;;;;21.02;40.82;101252.13;684291;28;47852;-64
2022/07/15 00:43:41;;;;;;;620.33;564.75;;;;;;;21.00;40.88;101254.25;686944;28;22218;-65
2022/07/15 00:44:02;;;;;;;632.63;576.72;;;;;;;21.02;40.80;101252.13;681967;28;90666;-65
2022/07/15 00:44:23;;;;;;;634.05;578.22;;;;;;;21.01;40.62;101256.75;686604;28;22539;-64
2022/07/15 00:44:47;;;;;;;655.53;599.15;;;;;;;21.01;40.68;101250.44;684825;28;13488;-65
2022/07/15 00:45:09;;;;;;;680.08;623.15;;;;;;;21.00;40.77;101252.38;687653;28;22354;-65
2022/07/15 00:45:32;;;;;;;707.92;650.33;;;;;;;20.97;40.67;101246.47;685588;28;46509;-65
2022/07/15 00:45:53;;;;;;;677.50;620.50;;;;;;;20.99;40.63;101253.44;686071;28;43608;-65
2022/07/15 00:46:15;;;;;;;646.85;590.50;;;;;;;20.98;40.81;101251.75;687096;28;45336;-66
2022/07/15 00:46:36;;;;;;;687.67;630.20;;;;;;;20.91;40.69;101245.53;687642;28;46403;-65
2022/07/15 00:47:00;;;;;;;681.40;624.50;;;;;;;20.95;40.73;101267.84;688504;28;1303;-66
2022/07/15 00:47:21;;;;;;;703.50;646.13;;;;;;;20.94;40.77;101250.56;688572;28;69057;-65
2022/07/15 00:47:43;;;;;;;728.75;670.85;;;;;;;20.92;40.71;101247.19;690486;28;22391;-67
2022/07/15 00:48:06;;;;;;;748.40;689.95;;;;;;;20.91;40.91;101253.75;688979;28;69324;-66
2022/07/15 00:48:30;;;;;;;762.15;703.33;;;;;;;20.89;40.88;101255.88;686800;28;46164;-65
2022/07/15 00:48:52;;;;;;;792.35;732.75;;;;;;;20.88;40.67;101255.06;682776;28;114579;-65
2022/07/15 00:49:13;;;;;;;845.30;784.25;;;;;;;20.86;40.73;101254.47;686043;28;9523;-66
2022/07/15 00:49:35;;;;;;;857.72;796.40;;;;;;;20.85;40.98;101255.53;686107;28;46552;-65
2022/07/15 00:49:56;;;;;;;886.50;824.28;;;;;;;20.83;40.89;101252.19;688652;28;22317;-65
2022/07/15 00:50:19;;;;;;;888.58;826.28;;;;;;;20.79;40.86;101250.13;686459;28;22418;-66
2022/07/15 00:50:41;;;;;;;878.30;816.38;;;;;;;20.77;41.00;101255.00;687425;28;69195;-65
2022/07/15 00:51:03;;;;;;;932.97;869.03;;;;;;;20.77;40.78;101255.84;690805;28;46792;-66
2022/07/15 00:51:24;;;;;;;900.42;837.55;;;;;;;20.77;40.92;101253.13;692313;28;44357;-65
2022/07/15 00:51:50;;;;;;;896.13;833.63;;;;;;;20.76;40.78;101253.34;691376;28;3556;-65
2022/07/15 00:52:13;;;;;;;931.25;867.70;;;;;;;20.76;40.79;101248.69;686891;28;92434;-65
2022/07/15 00:52:35;;;;;;;934.33;870.65;;;;;;;20.74;41.13;101252.75;686344;28;69399;-66
2022/07/15 00:52:59;;;;;;;929.13;865.63;;;;;;;20.75;40.85;101255.22;686967;28;44391;-66
2022/07/15 00:53:24;;;;;;;925.38;861.88;;;;;;;20.75;41.14;101257.16;684889;28;114905;-65
2022/07/15 00:53:48;;;;;;;926.53;863.03;;;;;;;20.76;40.98;101258.84;687717;28;115192;-66
2022/07/15 00:54:11;;;;;;;941.13;877.13;;;;;;;20.76;41.04;101256.09;689566;28;92243;-66
2022/07/15 00:54:32;;;;;;;947.10;882.90;;;;;;;20.76;41.09;101256.91;691576;28;92264;-65
2022/07/15 00:54:58;;;;;;;946.58;882.45;;;;;;;20.76;40.85;101256.91;694849;28;22375;-66
2022/07/15 00:55:21;;;;;;;944.58;880.55;;;;;;;20.76;41.25;101258.84;690341;28;115829;-65
2022/07/15 00:55:44;;;;;;;948.25;884.15;;;;;;;20.77;41.14;101258.59;688582;28;67472;-65
2022/07/15 00:56:10;;;;;;;956.53;892.13;;;;;;;20.78;41.12;101254.78;683448;28;65824;-66
2022/07/15 00:56:36;;;;;;;989.08;923.00;;;;;;;20.73;40.91;101251.06;680803;28;136397;-64
2022/07/15 00:57:00;;;;;;;956.78;891.97;;;;;;;20.78;40.80;101260.25;680302;28;137710;-64
2022/07/15 00:57:21;;;;;;;957.15;892.35;;;;;;;20.75;41.03;101257.16;686137;28;67261;-65
2022/07/15 00:57:44;;;;;;;959.45;894.90;;;;;;;20.77;41.17;101260.50;690161;28;21236;-64
2022/07/15 00:58:14;;;;;;;957.67;893.17;;;;;;;20.77;40.93;101260.50;692031;28;92062;-65
2022/07/15 00:58:37;;;;;;;953.72;889.13;;;;;;;20.77;40.96;101263.22;693838;28;74998;-64
2022/07/15 00:58:59;;;;;;;957.67;893.08;;;;;;;20.73;40.96;101265.63;695013;28;37540;-64
2022/07/15 00:59:25;;;;;;;962.00;897.30;;;;;;;20.75;40.88;101268.97;691553;28;68016;-64
2022/07/15 00:59:47;;;;;;;962.50;897.80;;;;;;;20.68;41.02;101257.25;692106;28;70185;-65
2022/07/15 01:00:12;;;;;;;959.50;894.83;;;;;;;20.76;41.13;101264.31;690525;28;45322;-65
2022/07/15 01:00:33;;;;;;;979.17;913.70;;;;;;;20.72;41.11;101261.22;686682;28;53116;-64
2022/07/15 01:01:01;;;;;;;987.28;921.40;;;;;;;20.70;40.99;101257.84;684518;28;44376;-64
2022/07/15 01:01:23;;;;;;;965.72;900.83;;;;;;;20.70;41.26;101261.44;683853;28;103362;-64
2022/07/15 01:01:45;;;;;;;968.90;903.92;;;;;;;20.65;41.36;101261.28;687563;28;47020;-65
2022/07/15 01:02:07;;;;;;;971.00;905.90;;;;;;;20.66;41.08;101264.88;689134;28;45239;-64
2022/07/15 01:02:29;;;;;;;975.38;910.17;;;;;;;20.56;41.31;101250.84;689881;28;1885;-64
2022/07/15 01:02:53;;;;;;;975.42;910.33;;;;;;;20.63;41.30;101266.16;691497;28;46150;-64
2022/07/15 01:03:17;;;;;;;977.60;912.30;;;;;;;20.60;41.35;101265.78;691928;28;48910;-64
2022/07/15 01:03:39;;;;;;;973.55;908.45;;;;;;;20.58;41.50;101265.16;694330;28;14898;-65
2022/07/15 01:04:02;;;;;;;972.20;907.20;;;;;;;20.55;41.35;101265.59;692906;28;46834;-65
2022/07/15 01:04:25;;;;;;;975.10;910.05;;;;;;;20.54;41.56;101267.53;694162;28;1393;-65
2022/07/15 01:04:48;;;;;;;983.67;918.03;;;;;;;20.50;41.82;101258.94;694139;28;1438;-65
2022/07/15 01:05:13;;;;;;;1002.95;936.35;;;;;;;20.50;41.49;101269.03;691900;28;69382;-65
2022/07/15 01:05:34;;;;;;;972.25;907.25;;;;;;;20.50;41.57;101263.56;690511;28;115214;-65
2022/07/15 01:05:58;;;;;;;972.15;907.08;;;;;;;20.50;41.55;101267.16;690272;28;22398;-65
2022/07/15 01:06:19;;;;;;;973.25;908.15;;;;;;;20.47;41.83;101258.53;686963;28;67441;-65
2022/07/15 01:06:40;;;;;;;976.50;911.25;;;;;;;20.48;41.73;101257.47;687042;28;44047;-65
2022/07/15 01:07:02;;;;;;;981.45;916.13;;;;;;;20.45;42.02;101269.72;684916;28;23478;-65
2022/07/15 01:07:23;;;;;;;981.08;915.67;;;;;;;20.47;41.61;101266.75;684991;28;46487;-65
2022/07/15 01:07:49;;;;;;;982.35;916.95;;;;;;;20.46;42.09;101263.19;685470;28;21514;-65
2022/07/15 01:08:11;;;;;;;982.58;917.17;;;;;;;20.45;41.74;101269.72;685208;28;138183;-65
2022/07/15 01:08:32;;;;;;;1008.08;941.38;;;;;;;20.44;41.72;101273.56;689445;28;23438;-65
2022/07/15 01:08:55;;;;;;;987.08;921.40;;;;;;;20.44;41.96;101268.06;688630;28;44330;-65
2022/07/15 01:09:19;;;;;;;984.08;918.58;;;;;;;20.44;41.95;101273.56;686191;28;1412;-64
2022/07/15 01:09:40;;;;;;;985.35;919.85;;;;;;;20.45;41.73;101268.91;683134;28;90771;-65
2022/07/15 01:10:05;;;;;;;983.97;918.58;;;;;;;20.44;41.93;101262.59;685425;28;1785;-65
2022/07/15 01:10:26;;;;;;;985.20;919.70;;;;;;;20.44;41.96;101265.34;684783;28;89980;-64
2022/07/15 01:10:47;;;;;;;978.55;913.25;;;;;;;20.38;41.84;101252.53;687006;28;23456;-65
2022/07/15 01:11:13;;;;;;;994.05;928.05;;;;;;;20.44;41.95;101262.59;685752;28;44377;-65
2022/07/15 01:11:35;;;;;;;1001.60;935.17;;;;;;;20.46;41.84;101265.94;683333;28;136367;-64
2022/07/15 01:11:58;;;;;;;981.47;916.03;;;;;;;20.46;41.64;101273.34;684703;28;92237;-65
2022/07/15 01:12:19;;;;;;;991.38;925.63;;;;;;;20.47;41.74;101272.25;685737;28;21383;-65
2022/07/15 01:12:42;;;;;;;994.22;928.45;;;;;;;20.46;41.73;101265.09;686133;28;45324;-64
2022/07/15 01:13:04;;;;;;;990.83;925.13;;;;;;;20.45;41.76;101264.25;688491;28;44567;-66
2022/07/15 01:13:25;;;;;;;997.10;931.20;;;;;;;20.41;41.81;101263.06;688845;28;46561;-65
2022/07/15 01:13:48;;;;;;;1002.92;936.80;;;;;;;20.43;41.77;101271.06;686676;28;68492;-66
2022/07/15 01:14:10;;;;;;;1004.95;938.72;;;;;;;20.39;41.79;101267.94;687134;28;45228;-65
2022/07/15 01:14:32;;;;;;;1009.65;943.25;;;;;;;20.39;41.95;101267.94;686795;28;69430;-64
2022/07/15 01:14:53;;;;;;;1009.20;942.80;;;;;;;20.40;41.95;101269.59;686132;28;21530;-65
2022/07/15 01:15:16;;;;;;;1012.45;945.90;;;;;;;20.39;41.98;101265.19;685700;28;44360;-64
2022/07/15 01:15:37;;;;;;;1011.60;945.10;;;;;;;20.39;41.91;101269.81;686708;28;44481;-65
2022/07/15 01:15:59;;;;;;;1008.13;941.83;;;;;;;20.38;42.03;101260.78;689765;28;23649;-64
2022/07/15 01:16:21;;;;;;;997.95;931.95;;;;;;;20.38;42.15;101268.16;687283;28;67458;-64
2022/07/15 01:16:43;;;;;;;995.00;929.10;;;;;;;20.38;42.04;101270.91;686750;28;46363;-64
2022/07/15 01:17:09;;;;;;;992.75;926.75;;;;;;;20.34;41.96;101259.53;687096;28;21557;-64
2022/07/15 01:17:32;;;;;;;996.38;930.38;;;;;;;20.38;41.98;101268.16;686243;28;117591;-64
2022/07/15 01:17:54;;;;;;;1040.65;972.50;;;;;;;20.36;41.99;101265.66;686515;28;92276;-64
2022/07/15 01:18:16;;;;;;;1028.35;960.90;;;;;;;20.35;42.03;101263.97;685455;28;14125;-64
2022/07/15 01:18:39;;;;;;;1003.08;936.90;;;;;;;20.36;42.23;101265.66;683619;28;46352;-67
2022/07/15 01:19:02;;;;;;;991.70;925.90;;;;;;;20.37;42.02;101266.47;684649;28;92217;-64
2022/07/15 01:19:29;;;;;;;998.85;932.85;;;;;;;20.34;41.98;101259.53;682740;28;137865;-66
2022/07/15 01:19:51;;;;;;;1017.28;950.33;;;;;;;20.33;41.95;101264.19;682040;28;22337;-64
2022/07/15 01:20:14;;;;;;;1037.63;969.58;;;;;;;20.31;42.30;101273.72;683602;28;46281;-64
2022/07/15 01:20:52;;;;;;;1000.67;934.67;;;;;;;20.29;42.44;101268.44;683358;28;136948;-63
2022/07/15 01:21:13;;;;;;;1002.72;936.55;;;;;;;20.26;42.09;101252.47;686175;28;69443;-64
2022/07/15 01:21:36;;;;;;;993.53;927.65;;;;;;;20.33;42.21;101266.13;685101;28;5236;-66
2022/07/15 01:21:58;;;;;;;991.80;925.90;;;;;;;20.31;42.15;101265.47;687664;28;40839;-64
2022/07/15 01:22:21;;;;;;;996.33;930.38;;;;;;;20.36;42.21;101268.41;686976;28;64212;-64
2022/07/15 01:22:44;;;;;;;991.58;925.83;;;;;;;20.34;41.85;101262.28;686582;28;7282;-63
2022/07/15 01:23:07;;;;;;;1000.03;933.88;;;;;;;20.37;42.31;101261.81;682663;28;68156;-64
2022/07/15 01:23:36;;;;;;;1002.58;936.38;;;;;;;20.32;42.25;101264.44;683307;28;137946;-64
2022/07/15 01:24:03;;;;;;;1017.22;950.55;;;;;;;20.34;42.30;101267.75;681626;28;138700;-64
2022/07/15 01:24:54;;;;;;;1012.97;946.38;;;;;;;20.36;42.27;101268.41;674950;29;161223;-64
2022/07/15 01:25:19;;;;;;;1038.55;970.42;;;;;;;20.37;42.00;101266.47;680308;28;138031;-64
2022/07/15 01:25:41;;;;;;;999.83;933.75;;;;;;;20.36;41.96;101271.13;685334;28;23508;-64
2022/07/15 01:26:06;;;;;;;993.25;927.55;;;;;;;20.35;42.21;101274.94;685495;28;114744;-64
2022/07/15 01:26:29;;;;;;;1002.78;936.63;;;;;;;20.36;42.16;101271.13;682624;28;69421;-64
2022/07/15 01:26:52;;;;;;;1002.50;936.30;;;;;;;20.35;42.36;101269.47;681659;28;69425;-64
2022/07/15 01:27:16;;;;;;;998.88;932.75;;;;;;;20.35;42.47;101274.94;680415;28;115732;-64
2022/07/15 01:27:37;;;;;;;1003.08;936.88;;;;;;;20.37;42.14;101274.72;684147;28;22377;-64
2022/07/15 01:27:59;;;;;;;1003.08;936.83;;;;;;;20.36;42.09;101268.41;682155;28;46503;-64
2022/07/15 01:28:24;;;;;;;1024.10;957.05;;;;;;;20.34;42.20;101276.00;683187;28;69406;-64
2022/07/15 01:28:47;;;;;;;987.40;921.80;;;;;;;20.34;42.41;101276.00;681288;28;90679;-64
2022/07/15 01:29:08;;;;;;;944.75;880.40;;;;;;;20.31;42.43;101271.81;684559;28;44510;-64
2022/07/15 01:29:30;;;;;;;948.78;884.13;;;;;;;20.32;42.39;101269.91;687031;28;23459;-64
2022/07/15 01:29:52;;;;;;;916.97;853.85;;;;;;;20.33;42.31;101277.09;684139;28;46313;-64
2022/07/15 01:30:16;;;;;;;924.08;860.63;;;;;;;20.33;42.35;101271.59;684093;28;90260;-64
2022/07/15 01:30:39;;;;;;;936.05;872.22;;;;;;;20.33;42.27;101275.16;687218;28;69426;-63
2022/07/15 01:31:02;;;;;;;943.92;879.83;;;;;;;20.33;42.47;101275.16;686217;28;69411;-64
2022/07/15 01:31:26;;;;;;;939.67;875.78;;;;;;;20.33;42.42;101275.16;682291;28;92280;-64
2022/07/15 01:31:48;;;;;;;936.63;872.72;;;;;;;20.32;42.37;101276.22;682159;28;44304;-64
2022/07/15 01:32:10;;;;;;;937.80;873.92;;;;;;;20.25;42.46;101260.91;684874;28;23802;-63
2022/07/15 01:32:32;;;;;;;939.85;875.85;;;;;;;20.28;42.42;101274.16;681566;28;44290;-63
2022/07/15 01:32:53;;;;;;;947.97;883.78;;;;;;;20.31;42.49;101268.22;680835;28;44357;-64
2022/07/15 01:33:15;;;;;;;954.07;889.57;;;;;;;20.28;42.56;101266.81;683720;28;46386;-64
2022/07/15 01:33:38;;;;;;;955.85;891.35;;;;;;;20.32;42.54;101272.66;685483;28;69419;-63
2022/07/15 01:34:00;;;;;;;959.60;895.00;;;;;;;20.34;42.45;101273.25;688787;28;45411;-65
2022/07/15 01:34:22;;;;;;;966.80;902.00;;;;;;;20.30;42.38;101259.16;686421;28;67425;-64
2022/07/15 01:34:43;;;;;;;969.55;904.55;;;;;;;20.33;42.58;101272.44;688169;28;21552;-63
2022/07/15 01:35:06;;;;;;;969.95;904.95;;;;;;;20.33;42.49;101275.16;685734;28;22216;-65
2022/07/15 01:35:30;;;;;;;1005.20;938.50;;;;;;;20.34;42.49;101279.59;683572;28;138459;-65
2022/07/15 01:35:55;;;;;;;996.08;929.72;;;;;;;20.34;42.45;101276.84;684781;28;23426;-65
2022/07/15 01:36:18;;;;;;;965.92;901.13;;;;;;;20.32;42.50;101270.75;683088;28;138311;-64
2022/07/15 01:36:46;;;;;;;976.72;911.53;;;;;;;20.30;42.78;101267.41;679001;28;157431;-65
2022/07/15 01:37:07;;;;;;;972.75;907.55;;;;;;;20.30;42.61;101270.13;684642;28;22275;-64
2022/07/15 01:37:33;;;;;;;975.13;909.92;;;;;;;20.27;42.51;101265.09;682702;28;115989;-65
2022/07/15 01:37:59;;;;;;;972.28;907.05;;;;;;;20.34;42.62;101265.03;683194;28;67585;-65
2022/07/15 01:38:21;;;;;;;970.22;905.22;;;;;;;20.34;42.53;101270.50;683936;28;138416;-64
2022/07/15 01:38:47;;;;;;;976.22;911.08;;;;;;;20.32;42.82;101265.25;683163;28;136279;-65
2022/07/15 01:39:10;;;;;;;974.53;909.33;;;;;;;20.29;42.73;101276.69;684275;28;46398;-65
2022/07/15 01:39:31;;;;;;;975.78;910.65;;;;;;;20.29;42.64;101275.84;683680;28;44378;-64
2022/07/15 01:39:54;;;;;;;978.65;913.38;;;;;;;20.27;42.86;101275.25;683099;28;69419;-65
2022/07/15 01:40:16;;;;;;;991.28;925.42;;;;;;;20.27;42.75;101273.34;686658;28;22149;-64
2022/07/15 01:40:37;;;;;;;1025.47;957.95;;;;;;;20.26;42.47;101270.81;682711;28;46300;-64
2022/07/15 01:41:01;;;;;;;986.42;920.78;;;;;;;20.25;42.74;101274.63;684723;28;69169;-65
2022/07/15 01:41:23;;;;;;;990.47;924.67;;;;;;;20.24;42.81;101275.72;686176;28;44314;-65
2022/07/15 01:41:50;;;;;;;990.80;925.05;;;;;;;20.20;42.79;101279.97;684230;28;84412;-64
2022/07/15 01:42:13;;;;;;;987.90;922.28;;;;;;;20.19;42.84;101270.06;687007;28;36419;-66
2022/07/15 01:42:35;;;;;;;994.22;928.33;;;;;;;20.18;42.87;101269.22;687908;28;21348;-64
2022/07/15 01:42:57;;;;;;;994.72;928.75;;;;;;;20.12;43.04;101276.44;683961;28;46245;-65
2022/07/15 01:43:18;;;;;;;985.95;920.35;;;;;;;20.14;43.20;101273.47;684164;28;44061;-65
2022/07/15 01:43:40;;;;;;;1013.00;946.05;;;;;;;20.14;43.33;101270.72;685120;28;21561;-64
2022/07/15 01:44:02;;;;;;;1002.83;936.47;;;;;;;20.10;42.98;101266.78;685381;28;46367;-64